createdAt,value
2023-05-02T00:01:07.398Z,16.60
2023-05-02T00:03:35.424Z,16.55
2023-05-02T00:06:03.498Z,17.42
2023-05-02T00:08:31.847Z,16.63
2023-05-02T00:11:01.334Z,17.25
2023-05-02T00:13:29.596Z,18.67
2023-05-02T00:15:57.560Z,19.00
2023-05-02T00:18:25.713Z,20.45
2023-05-02T00:20:53.617Z,20.42
2023-05-02T00:23:21.858Z,20.63
2023-05-02T00:25:49.822Z,20.58
2023-05-02T00:28:19.505Z,21.48
2023-05-02T00:30:47.928Z,20.65
2023-05-02T00:33:16.083Z,21.23
2023-05-02T00:35:44.187Z,20.77
2023-05-02T00:38:12.169Z,21.10
2023-05-02T00:40:47.748Z,21.90
2023-05-02T00:43:16.252Z,21.80
2023-05-02T00:45:46.800Z,21.50
2023-05-02T00:48:15.180Z,22.70
2023-05-02T00:50:43.982Z,20.17
2023-05-02T00:53:12.414Z,19.00
2023-05-02T00:55:40.434Z,19.38
2023-05-02T00:58:12.877Z,19.30
2023-05-02T01:00:52.451Z,19.75
2023-05-02T01:03:29.445Z,18.85
2023-05-02T01:06:04.947Z,18.58
2023-05-02T01:08:37.135Z,18.85
2023-05-02T01:11:11.636Z,17.98
2023-05-02T01:13:40.532Z,18.10
2023-05-02T01:16:13.135Z,17.15
2023-05-02T01:18:43.637Z,17.20
2023-05-02T01:21:12.830Z,16.30
2023-05-02T01:23:54.848Z,16.38
2023-05-02T01:26:29.135Z,16.00
2023-05-02T01:31:28.621Z,13.48
2023-05-02T01:33:58.556Z,11.20
2023-05-02T01:36:30.398Z,10.38
2023-05-02T01:38:59.038Z,9.80
2023-05-02T01:41:28.782Z,9.57
2023-05-02T01:43:59.714Z,9.38
2023-05-02T01:46:28.809Z,8.93
2023-05-02T01:48:59.248Z,7.90
2023-05-02T01:51:29.964Z,7.85
2023-05-02T01:53:58.506Z,7.60
2023-05-02T01:56:27.852Z,6.88
2023-05-02T01:58:58.612Z,6.38
2023-05-02T02:01:31.012Z,5.28
2023-05-02T02:04:00.001Z,5.15
2023-05-02T02:06:28.702Z,4.75
2023-05-02T02:08:56.894Z,4.32
2023-05-02T02:11:28.890Z,4.10
2023-05-02T02:14:07.892Z,4.05
2023-05-02T02:16:39.522Z,3.65
2023-05-02T02:19:09.404Z,3.58
2023-05-02T02:21:38.723Z,3.97
2023-05-02T02:24:08.214Z,3.65
2023-05-02T02:26:36.740Z,3.55
2023-05-02T02:29:06.264Z,3.33
2023-05-02T02:31:35.568Z,3.28
2023-05-02T02:34:03.937Z,2.85
2023-05-02T02:36:35.759Z,2.83
2023-05-02T02:39:10.499Z,3.40
2023-05-02T02:41:41.670Z,2.80
2023-05-02T02:44:20.050Z,3.20
2023-05-02T02:46:51.182Z,3.00
2023-05-02T02:49:31.549Z,2.78
2023-05-02T02:52:04.797Z,2.50
2023-05-02T02:54:35.150Z,2.95
2023-05-02T02:57:07.767Z,3.30
2023-05-02T02:59:41.499Z,3.25
2023-05-02T03:02:11.139Z,3.30
2023-05-02T03:04:41.107Z,2.50
2023-05-02T03:07:09.523Z,2.70
2023-05-02T03:09:44.385Z,3.28
2023-05-02T03:12:16.928Z,3.10
2023-05-02T03:14:47.434Z,3.10
2023-05-02T03:17:15.838Z,3.13
2023-05-02T03:19:43.969Z,3.00
2023-05-02T03:22:13.275Z,2.35
2023-05-02T03:24:41.581Z,3.10
2023-05-02T03:27:10.915Z,2.90
2023-05-02T03:29:42.648Z,2.83
2023-05-02T03:32:14.225Z,2.50
2023-05-02T03:34:44.601Z,2.38
2023-05-02T03:37:13.184Z,2.70
2023-05-02T03:39:41.544Z,2.35
2023-05-02T03:42:09.633Z,2.67
2023-05-02T03:44:37.813Z,2.35
2023-05-02T03:47:05.885Z,2.60
2023-05-02T03:49:41.600Z,2.45
2023-05-02T03:52:10.533Z,2.22
2023-05-02T03:54:39.359Z,2.53
2023-05-02T03:57:08.215Z,2.55
2023-05-02T03:59:36.672Z,2.47
2023-05-02T04:02:14.281Z,2.95
2023-05-02T04:04:48.132Z,2.60
2023-05-02T04:07:19.919Z,2.88
2023-05-02T04:09:58.552Z,2.40
2023-05-02T04:12:27.381Z,2.50
2023-05-02T04:14:55.895Z,3.15
2023-05-02T04:17:28.261Z,2.42
2023-05-02T04:19:58.206Z,2.50
2023-05-02T04:22:28.654Z,2.65
2023-05-02T04:25:01.115Z,2.83
2023-05-02T04:27:30.583Z,2.63
2023-05-02T04:29:59.927Z,2.20
2023-05-02T04:32:28.513Z,2.53
2023-05-02T04:34:59.191Z,2.70
2023-05-02T04:37:27.532Z,2.92
2023-05-02T04:39:55.902Z,3.15
2023-05-02T04:42:27.695Z,2.60
2023-05-02T04:45:02.883Z,2.42
2023-05-02T04:47:30.993Z,2.47
2023-05-02T04:50:00.897Z,2.78
2023-05-02T04:52:30.268Z,2.35
2023-05-02T04:54:58.525Z,2.65
2023-05-02T04:57:26.706Z,2.53
2023-05-02T04:59:58.312Z,2.45
2023-05-02T05:02:27.428Z,2.90
2023-05-02T05:04:57.185Z,2.95
2023-05-02T05:07:26.905Z,2.95
2023-05-02T05:09:56.218Z,2.67
2023-05-02T05:12:27.463Z,2.97
2023-05-02T05:14:56.028Z,2.63
2023-05-02T05:17:26.986Z,2.63
2023-05-02T05:19:55.080Z,2.40
2023-05-02T05:22:24.088Z,3.22
2023-05-02T05:24:54.620Z,2.33
2023-05-02T05:27:25.835Z,2.15
2023-05-02T05:29:54.373Z,2.38
2023-05-02T05:32:24.343Z,2.50
2023-05-02T05:34:53.333Z,2.58
2023-05-02T05:37:23.360Z,2.85
2023-05-02T05:39:53.198Z,2.75
2023-05-02T05:42:21.271Z,2.92
2023-05-02T05:44:52.581Z,3.00
2023-05-02T05:47:23.012Z,3.47
2023-05-02T05:49:54.444Z,3.50
2023-05-02T05:52:24.269Z,3.03
2023-05-02T05:54:57.075Z,3.17
2023-05-02T05:57:28.466Z,3.72
2023-05-02T05:59:58.177Z,3.80
2023-05-02T06:02:26.937Z,3.83
2023-05-02T06:04:56.709Z,3.65
2023-05-02T06:07:26.913Z,3.60
2023-05-02T06:09:56.381Z,3.15
2023-05-02T06:12:24.615Z,4.13
2023-05-02T06:14:53.082Z,3.60
2023-05-02T06:17:22.398Z,4.50
2023-05-02T06:19:51.298Z,3.78
2023-05-02T06:22:19.549Z,4.15
2023-05-02T06:24:47.587Z,4.35
2023-05-02T06:27:16.952Z,3.85
2023-05-02T06:29:44.895Z,4.05
2023-05-02T06:32:12.901Z,3.60
2023-05-02T06:34:41.069Z,3.63
2023-05-02T06:37:09.256Z,3.63
2023-05-02T06:39:37.617Z,3.05
2023-05-02T06:42:05.889Z,3.20
2023-05-02T06:44:36.994Z,3.20
2023-05-02T06:47:06.871Z,2.65
2023-05-02T06:49:35.021Z,2.30
2023-05-02T06:52:03.432Z,2.80
2023-05-02T06:54:32.431Z,3.33
2023-05-02T06:57:01.037Z,2.75
2023-05-02T06:59:31.985Z,2.88
2023-05-02T07:02:04.439Z,2.70
2023-05-02T07:04:33.535Z,2.67
2023-05-02T07:07:01.431Z,3.03
2023-05-02T07:09:29.446Z,2.80
2023-05-02T07:11:57.460Z,2.90
2023-05-02T07:14:25.473Z,2.92
2023-05-02T07:16:54.845Z,2.80
2023-05-02T07:19:25.153Z,2.97
2023-05-02T07:21:53.189Z,2.72
2023-05-02T07:24:21.221Z,2.50
2023-05-02T07:26:49.387Z,2.80
2023-05-02T07:29:17.266Z,2.83
2023-05-02T07:31:45.708Z,2.78
2023-05-02T07:34:13.646Z,2.90
2023-05-02T07:36:43.120Z,2.85
2023-05-02T07:39:11.799Z,2.85
2023-05-02T07:41:40.178Z,3.88
2023-05-02T07:44:08.488Z,3.10
2023-05-02T07:46:36.818Z,3.20
2023-05-02T07:49:04.816Z,3.20
2023-05-02T07:51:33.120Z,3.70
2023-05-02T07:54:02.997Z,3.17
2023-05-02T07:56:30.921Z,3.10
2023-05-02T07:58:59.007Z,2.50
2023-05-02T08:01:28.769Z,2.60
2023-05-02T08:03:57.287Z,2.72
2023-05-02T08:06:25.694Z,2.67
2023-05-02T08:08:53.807Z,2.80
2023-05-02T08:11:25.553Z,3.22
2023-05-02T08:13:53.934Z,2.70
2023-05-02T08:16:22.149Z,2.40
2023-05-02T08:18:50.573Z,2.58
2023-05-02T08:21:18.693Z,2.30
2023-05-02T08:23:47.074Z,2.35
2023-05-02T08:26:15.985Z,2.53
2023-05-02T08:28:45.442Z,2.25
2023-05-02T08:31:13.505Z,2.63
2023-05-02T08:33:42.144Z,2.20
2023-05-02T08:36:14.498Z,2.45
2023-05-02T08:38:43.137Z,2.05
2023-05-02T08:41:12.728Z,2.65
2023-05-02T08:43:41.502Z,2.20
2023-05-02T08:46:11.909Z,2.53
2023-05-02T08:48:42.110Z,2.10
2023-05-02T08:51:11.651Z,2.00
2023-05-02T08:53:40.619Z,1.90
2023-05-02T08:56:09.798Z,2.63
2023-05-02T08:58:38.332Z,2.45
2023-05-02T09:01:15.639Z,2.13
2023-05-02T09:03:44.966Z,2.10
2023-05-02T09:06:14.512Z,2.08
2023-05-02T09:08:45.393Z,2.15
2023-05-02T09:11:14.278Z,2.03
2023-05-02T09:13:43.526Z,2.00
2023-05-02T09:16:14.768Z,1.95
2023-05-02T09:18:44.348Z,2.00
2023-05-02T09:21:13.586Z,2.25
2023-05-02T09:23:42.958Z,1.98
2023-05-02T09:26:21.370Z,1.90
2023-05-02T09:28:50.803Z,1.88
2023-05-02T09:31:43.413Z,1.88
2023-05-02T09:34:11.860Z,1.90
2023-05-02T09:36:41.819Z,1.60
2023-05-02T09:39:13.775Z,1.70
2023-05-02T09:41:42.989Z,1.70
2023-05-02T09:44:12.706Z,1.90
2023-05-02T09:46:43.854Z,1.80
2023-05-02T09:49:11.927Z,1.90
2023-05-02T09:51:40.443Z,2.08
2023-05-02T09:54:08.986Z,1.95
2023-05-02T09:56:56.689Z,2.50
2023-05-02T09:59:25.710Z,2.00
2023-05-02T10:01:59.067Z,1.83
2023-05-02T10:04:28.179Z,2.30
2023-05-02T10:06:56.594Z,2.13
2023-05-02T10:09:25.295Z,1.98
2023-05-02T10:11:54.297Z,2.30
2023-05-02T10:14:23.616Z,2.47
2023-05-02T10:17:01.643Z,2.47
2023-05-02T10:19:31.888Z,2.80
2023-05-02T10:22:00.660Z,2.10
2023-05-02T10:24:29.780Z,1.95
2023-05-02T10:27:00.941Z,2.50
2023-05-02T10:29:30.615Z,2.45
2023-05-02T10:32:01.573Z,2.67
2023-05-02T10:34:30.105Z,2.10
2023-05-02T10:37:01.535Z,2.30
2023-05-02T10:39:30.213Z,2.60
2023-05-02T10:41:59.560Z,2.58
2023-05-02T10:44:34.433Z,2.78
2023-05-02T10:47:19.573Z,2.45
2023-05-02T10:49:55.548Z,2.55
2023-05-02T10:52:27.992Z,2.30
2023-05-02T10:55:18.197Z,2.50
2023-05-02T10:58:23.769Z,2.40
2023-05-02T11:00:52.045Z,2.10
2023-05-02T11:03:59.417Z,2.88
2023-05-02T11:06:29.058Z,1.92
2023-05-02T11:09:30.807Z,2.33
2023-05-02T11:11:59.161Z,2.80
2023-05-02T11:14:50.928Z,2.30
2023-05-02T11:17:21.333Z,2.70
2023-05-02T11:20:26.516Z,2.30
2023-05-02T11:22:57.760Z,2.70
2023-05-02T11:25:39.646Z,2.30
2023-05-02T11:28:09.597Z,2.47
2023-05-02T11:30:43.671Z,2.58
2023-05-02T11:35:49.928Z,2.70
2023-05-02T11:38:21.742Z,2.50
2023-05-02T11:40:55.762Z,2.60
2023-05-02T11:43:25.252Z,2.58
2023-05-02T11:45:54.004Z,2.78
2023-05-02T11:48:23.439Z,2.70
2023-05-02T11:50:53.500Z,2.65
2023-05-02T11:53:24.091Z,2.78
2023-05-02T11:55:53.638Z,2.80
2023-05-02T11:58:23.220Z,2.67
2023-05-02T12:00:52.917Z,2.90
2023-05-02T12:03:31.885Z,2.70
2023-05-02T12:06:11.083Z,3.13
2023-05-02T12:08:41.855Z,2.95
2023-05-02T12:11:10.418Z,3.20
2023-05-02T12:13:46.457Z,3.05
2023-05-02T12:16:14.687Z,3.28
2023-05-02T12:18:43.260Z,3.60
2023-05-02T12:21:11.426Z,2.97
2023-05-02T12:23:42.382Z,2.97
2023-05-02T12:26:21.619Z,3.20
2023-05-02T12:28:51.023Z,3.08
2023-05-02T12:31:19.486Z,3.22
2023-05-02T12:33:50.766Z,3.38
2023-05-02T12:36:19.623Z,3.13
2023-05-02T12:38:54.358Z,3.33
2023-05-02T12:41:32.830Z,3.13
2023-05-02T12:44:01.253Z,3.30
2023-05-02T12:46:29.379Z,3.60
2023-05-02T12:49:05.759Z,3.25
2023-05-02T12:51:34.775Z,3.30
2023-05-02T12:54:04.931Z,3.35
2023-05-02T12:56:40.438Z,3.65
2023-05-02T12:59:09.673Z,3.10
2023-05-02T13:01:38.207Z,3.17
2023-05-02T13:04:06.988Z,3.38
2023-05-02T13:06:37.757Z,3.20
2023-05-02T13:09:07.938Z,2.70
2023-05-02T13:11:35.984Z,3.05
2023-05-02T13:14:06.034Z,3.03
2023-05-02T13:16:36.802Z,3.25
2023-05-02T13:19:06.306Z,3.42
2023-05-02T13:21:34.597Z,3.28
2023-05-02T13:24:04.282Z,3.30
2023-05-02T13:26:33.653Z,2.90
2023-05-02T13:29:01.935Z,3.10
2023-05-02T13:31:30.104Z,3.03
2023-05-02T13:33:58.312Z,2.80
2023-05-02T13:36:26.389Z,2.72
2023-05-02T13:38:54.856Z,3.30
2023-05-02T13:41:24.776Z,3.92
2023-05-02T13:43:54.484Z,3.25
2023-05-02T13:46:22.943Z,3.40
2023-05-02T13:48:51.050Z,2.97
2023-05-02T13:51:19.636Z,2.78
2023-05-02T13:53:47.702Z,3.05
2023-05-02T13:56:16.181Z,3.38
2023-05-02T13:58:44.066Z,3.03
2023-05-02T14:01:13.663Z,3.40
2023-05-02T14:03:42.139Z,3.67
2023-05-02T14:06:10.416Z,3.38
2023-05-02T14:08:38.302Z,3.30
2023-05-02T14:11:07.396Z,3.13
2023-05-02T14:13:35.606Z,3.05
2023-05-02T14:16:04.061Z,2.95
2023-05-02T14:18:34.077Z,3.03
2023-05-02T14:21:03.286Z,3.33
2023-05-02T14:23:31.548Z,2.85
2023-05-02T14:25:59.422Z,2.78
2023-05-02T14:28:28.080Z,2.75
2023-05-02T14:30:56.579Z,3.30
2023-05-02T14:33:24.825Z,2.72
2023-05-02T14:35:54.428Z,2.88
2023-05-02T14:38:22.703Z,2.97
2023-05-02T14:40:50.847Z,2.80
2023-05-02T14:43:19.026Z,2.92
2023-05-02T14:45:47.155Z,2.22
2023-05-02T14:48:17.274Z,2.97
2023-05-02T14:50:45.518Z,3.03
2023-05-02T14:53:15.107Z,2.60
2023-05-02T14:55:43.388Z,4.30
2023-05-02T14:58:11.803Z,2.80
2023-05-02T15:00:40.298Z,2.85
2023-05-02T15:03:10.029Z,3.10
2023-05-02T15:05:38.399Z,2.60
2023-05-02T15:08:07.244Z,2.78
2023-05-02T15:10:39.954Z,2.60
2023-05-02T15:13:08.942Z,2.70
2023-05-02T15:15:37.696Z,3.15
2023-05-02T15:18:06.305Z,2.70
2023-05-02T15:20:34.472Z,3.17
2023-05-02T15:23:03.720Z,2.67
2023-05-02T15:25:32.603Z,3.20
2023-05-02T15:28:03.183Z,2.67
2023-05-02T15:30:32.040Z,2.40
2023-05-02T15:33:00.267Z,2.50
2023-05-02T15:35:28.394Z,2.60
2023-05-02T15:37:56.979Z,2.75
2023-05-02T15:40:26.065Z,2.50
2023-05-02T15:42:54.385Z,2.85
2023-05-02T15:45:24.081Z,3.25
2023-05-02T15:47:52.397Z,2.60
2023-05-02T15:50:20.735Z,2.55
2023-05-02T15:52:49.411Z,2.60
2023-05-02T15:55:17.939Z,2.75
2023-05-02T15:57:46.289Z,2.67
2023-05-02T16:00:17.024Z,2.58
2023-05-02T16:02:46.557Z,2.78
2023-05-02T16:05:14.707Z,2.53
2023-05-02T16:07:42.784Z,2.30
2023-05-02T16:10:11.605Z,2.63
2023-05-02T16:12:39.699Z,2.50
2023-05-02T16:15:09.588Z,2.05
2023-05-02T16:17:37.793Z,2.28
2023-05-02T16:20:08.986Z,2.00
2023-05-02T16:22:38.554Z,2.42
2023-05-02T16:25:07.499Z,2.33
2023-05-02T16:27:35.804Z,2.20
2023-05-02T16:30:04.240Z,2.00
2023-05-02T16:32:32.746Z,2.88
2023-05-02T16:35:00.925Z,2.28
2023-05-02T16:37:30.557Z,2.58
2023-05-02T16:40:01.217Z,2.25
2023-05-02T16:42:30.008Z,2.28
2023-05-02T16:44:58.664Z,2.00
2023-05-02T16:47:28.055Z,2.10
2023-05-02T16:49:57.663Z,2.00
2023-05-02T16:52:26.898Z,1.80
2023-05-02T16:54:56.720Z,1.80
2023-05-02T16:57:24.959Z,2.00
2023-05-02T16:59:53.849Z,2.05
2023-05-02T17:02:22.629Z,1.90
2023-05-02T17:04:50.898Z,2.08
2023-05-02T17:07:19.015Z,1.70
2023-05-02T17:09:47.105Z,1.90
2023-05-02T17:12:22.409Z,2.00
2023-05-02T17:14:51.828Z,1.77
2023-05-02T17:17:23.119Z,2.20
2023-05-02T17:19:52.010Z,2.25
2023-05-02T17:22:20.796Z,2.10
2023-05-02T17:24:52.960Z,2.20
2023-05-02T17:27:22.722Z,1.85
2023-05-02T17:29:51.150Z,1.70
2023-05-02T17:32:19.225Z,1.98
2023-05-02T17:34:47.524Z,2.15
2023-05-02T17:37:15.573Z,2.20
2023-05-02T17:39:44.187Z,2.00
2023-05-02T17:42:12.544Z,1.60
2023-05-02T17:44:42.093Z,1.98
2023-05-02T17:47:10.140Z,2.00
2023-05-02T17:49:38.117Z,1.92
2023-05-02T17:52:06.129Z,1.70
2023-05-02T17:54:34.477Z,1.80
2023-05-02T17:57:02.466Z,1.70
2023-05-02T17:59:30.503Z,1.90
2023-05-02T18:02:00.085Z,1.67
2023-05-02T18:04:28.161Z,1.60
2023-05-02T18:06:56.452Z,1.90
2023-05-02T18:09:24.630Z,1.88
2023-05-02T18:11:53.486Z,1.73
2023-05-02T18:14:22.901Z,2.22
2023-05-02T18:16:51.522Z,1.55
2023-05-02T18:19:22.189Z,1.75
2023-05-02T18:21:51.630Z,1.92
2023-05-02T18:24:19.783Z,1.83
2023-05-02T18:26:50.067Z,1.48
2023-05-02T18:29:18.409Z,2.10
2023-05-02T18:31:52.520Z,1.83
2023-05-02T18:34:22.915Z,1.60
2023-05-02T18:36:51.794Z,1.85
2023-05-02T18:39:21.829Z,1.58
2023-05-02T18:41:50.307Z,1.75
2023-05-02T18:44:18.974Z,1.60
2023-05-02T18:46:47.669Z,1.55
2023-05-02T18:49:16.049Z,1.92
2023-05-02T18:51:45.568Z,1.83
2023-05-02T18:54:14.187Z,1.60
2023-05-02T18:56:42.577Z,2.03
2023-05-02T18:59:10.680Z,1.63
2023-05-02T19:01:39.504Z,1.95
2023-05-02T19:04:08.292Z,1.27
2023-05-02T19:06:36.441Z,1.60
2023-05-02T19:09:06.983Z,1.83
2023-05-02T19:11:35.230Z,1.45
2023-05-02T19:14:03.718Z,1.58
2023-05-02T19:16:32.463Z,1.75
2023-05-02T19:19:00.658Z,1.92
2023-05-02T19:21:29.086Z,1.85
2023-05-02T19:23:57.633Z,1.90
2023-05-02T19:26:27.547Z,2.00
2023-05-02T19:28:55.932Z,2.10
2023-05-02T19:31:24.718Z,1.65
2023-05-02T19:33:52.889Z,1.90
2023-05-02T19:36:22.237Z,1.60
2023-05-02T19:38:51.213Z,1.70
2023-05-02T19:41:19.660Z,1.63
2023-05-02T19:43:53.128Z,2.05
2023-05-02T19:46:26.667Z,1.98
2023-05-02T19:48:55.574Z,2.10
2023-05-02T19:51:25.731Z,1.90
2023-05-02T19:53:54.042Z,2.13
2023-05-02T19:56:25.341Z,2.03
2023-05-02T19:58:55.043Z,1.77
2023-05-02T20:01:23.197Z,2.33
2023-05-02T20:03:51.342Z,2.45
2023-05-02T20:06:19.596Z,2.42
2023-05-02T20:08:47.992Z,2.10
2023-05-02T20:11:16.147Z,2.15
2023-05-02T20:13:44.426Z,2.53
2023-05-02T20:16:14.795Z,2.40
2023-05-02T20:18:42.972Z,2.35
2023-05-02T20:21:13.466Z,2.08
2023-05-02T20:23:43.666Z,2.42
2023-05-02T20:26:14.187Z,2.40
2023-05-02T20:28:42.783Z,2.35
2023-05-02T20:31:11.401Z,2.40
2023-05-02T20:33:45.255Z,2.47
2023-05-02T20:36:15.163Z,2.70
2023-05-02T20:38:44.883Z,2.85
2023-05-02T20:41:14.274Z,2.45
2023-05-02T20:43:44.945Z,2.20
2023-05-02T20:46:16.359Z,2.03
2023-05-02T20:48:46.184Z,2.30
2023-05-02T20:51:14.294Z,1.95
2023-05-02T20:53:42.777Z,2.15
2023-05-02T20:56:10.893Z,2.40
2023-05-02T20:58:39.502Z,2.42
2023-05-02T21:01:07.846Z,2.30
2023-05-02T21:03:39.399Z,2.53
2023-05-02T21:06:08.914Z,2.53
2023-05-02T21:08:37.026Z,2.55
2023-05-02T21:11:13.614Z,2.20
2023-05-02T21:13:42.174Z,2.22
2023-05-02T21:16:17.360Z,2.30
2023-05-02T21:18:45.882Z,2.08
2023-05-02T21:21:15.587Z,2.83
2023-05-02T21:23:43.877Z,2.10
2023-05-02T21:26:12.340Z,2.05
2023-05-02T21:28:40.552Z,2.35
2023-05-02T21:31:08.837Z,2.15
2023-05-02T21:33:37.216Z,2.55
2023-05-02T21:36:05.446Z,2.08
2023-05-02T21:38:34.899Z,1.85
2023-05-02T21:41:04.076Z,2.10
2023-05-02T21:43:32.950Z,2.60
2023-05-02T21:46:01.198Z,2.10
2023-05-02T21:48:29.324Z,2.58
2023-05-02T21:50:57.555Z,2.05
2023-05-02T21:53:27.116Z,2.67
2023-05-02T21:55:56.498Z,2.17
2023-05-02T21:58:24.629Z,2.20
2023-05-02T22:00:53.117Z,2.35
2023-05-02T22:03:21.416Z,2.88
2023-05-02T22:05:50.345Z,2.80
2023-05-02T22:08:20.484Z,2.80
2023-05-02T22:10:48.908Z,3.88
2023-05-02T22:13:18.490Z,2.85
2023-05-02T22:15:47.691Z,3.00
2023-05-02T22:18:16.975Z,3.17
2023-05-02T22:20:46.020Z,2.55
2023-05-02T22:23:14.055Z,3.28
2023-05-02T22:25:43.081Z,3.05
2023-05-02T22:28:12.292Z,3.42
2023-05-02T22:30:42.975Z,4.57
2023-05-02T22:33:11.529Z,3.00
2023-05-02T22:35:39.917Z,2.88
2023-05-02T22:38:09.329Z,2.80
2023-05-02T22:40:37.732Z,2.47
2023-05-02T22:43:06.001Z,2.80
2023-05-02T22:45:34.320Z,2.30
2023-05-02T22:48:04.322Z,2.60
2023-05-02T22:50:32.653Z,2.30
2023-05-02T22:53:03.914Z,2.88
2023-05-02T22:55:32.436Z,2.55
2023-05-02T22:58:00.401Z,2.95
2023-05-02T23:00:28.620Z,2.72
2023-05-02T23:02:57.449Z,2.30
2023-05-02T23:05:27.310Z,2.28
2023-05-02T23:07:55.507Z,2.28
2023-05-02T23:10:23.793Z,2.42
2023-05-02T23:12:51.730Z,2.08
2023-05-02T23:15:20.210Z,2.53
2023-05-02T23:17:48.226Z,1.80
2023-05-02T23:20:19.593Z,2.13
2023-05-02T23:22:49.148Z,1.83
2023-05-02T23:25:17.419Z,2.20
2023-05-02T23:27:45.812Z,2.10
2023-05-02T23:30:14.196Z,2.38
2023-05-02T23:32:42.792Z,2.35
2023-05-02T23:35:12.496Z,2.40
2023-05-02T23:37:42.067Z,2.28
2023-05-02T23:40:12.130Z,2.10
2023-05-02T23:42:40.639Z,2.28
2023-05-02T23:45:09.391Z,2.55
2023-05-02T23:47:37.930Z,2.55
2023-05-02T23:50:06.993Z,2.70
2023-05-02T23:52:35.085Z,2.30
2023-05-02T23:55:03.602Z,2.25
2023-05-02T23:57:33.211Z,2.13
